createdAt,value
2016-02-05T00:00:13.321Z,0
2016-02-05T00:01:13.278Z,0
2016-02-05T00:02:13.280Z,0
2016-02-05T00:03:13.299Z,0
2016-02-05T00:04:13.379Z,0
2016-02-05T00:05:13.289Z,0
2016-02-05T00:06:13.244Z,0
2016-02-05T00:07:13.247Z,0
2016-02-05T00:08:13.250Z,0
2016-02-05T00:09:13.252Z,0
2016-02-05T00:10:13.240Z,0
2016-02-05T00:11:13.243Z,0
2016-02-05T00:12:13.245Z,0
2016-02-05T00:13:13.233Z,0
2016-02-05T00:14:13.205Z,0
2016-02-05T00:15:13.430Z,0
2016-02-05T00:16:13.214Z,0
2016-02-05T00:17:13.233Z,0
2016-02-05T00:18:13.190Z,0
2016-02-05T00:19:13.176Z,0
2016-02-05T00:20:13.211Z,0
2016-02-05T00:21:13.198Z,0
2016-02-05T00:22:13.169Z,0
2016-02-05T00:23:13.188Z,0
2016-02-05T00:24:13.175Z,0
2016-02-05T00:25:13.151Z,0
2016-02-05T00:26:13.154Z,0
2016-02-05T00:27:13.173Z,0
2016-02-05T00:28:13.144Z,0
2016-02-05T00:29:13.131Z,0
2016-02-05T00:30:13.046Z,0
2016-02-05T00:31:12.815Z,0
2016-02-05T00:32:13.150Z,0
2016-02-05T00:33:12.826Z,0
2016-02-05T00:34:13.110Z,0
2016-02-05T00:35:13.122Z,0
2016-02-05T00:36:13.375Z,0
2016-02-05T00:37:13.096Z,0
2016-02-05T00:38:13.099Z,0
2016-02-05T00:39:13.133Z,0
2016-02-05T00:40:13.089Z,0
2016-02-05T00:41:13.075Z,0
2016-02-05T00:42:13.094Z,0
2016-02-05T00:43:13.071Z,0
2016-02-05T00:44:13.090Z,0
2016-02-05T00:45:13.078Z,0
2016-02-05T00:46:13.048Z,0
2016-02-05T00:47:13.067Z,0
2016-02-05T00:48:13.070Z,0
2016-02-05T00:49:13.042Z,0
2016-02-05T00:50:13.044Z,0
2016-02-05T00:51:13.031Z,0
2016-02-05T00:52:13.018Z,0
2016-02-05T00:53:13.021Z,0
2016-02-05T00:54:13.023Z,0
2016-02-05T00:55:13.013Z,0
2016-02-05T00:56:13.079Z,0
2016-02-05T00:57:13.020Z,0
2016-02-05T00:58:12.979Z,0
2016-02-05T00:59:12.981Z,0
2016-02-05T01:00:12.984Z,0
2016-02-05T01:01:12.987Z,0
2016-02-05T01:02:12.974Z,0
2016-02-05T01:03:12.976Z,0
2016-02-05T01:04:12.964Z,0
2016-02-05T01:05:12.951Z,0
2016-02-05T01:06:12.985Z,0
2016-02-05T01:07:12.925Z,0
2016-02-05T01:08:12.929Z,0
2016-02-05T01:09:12.932Z,0
2016-02-05T01:10:12.918Z,0
2016-02-05T01:11:12.921Z,0
2016-02-05T01:12:12.923Z,0
2016-02-05T01:13:12.912Z,0
2016-02-05T01:14:12.914Z,0
2016-02-05T01:15:12.902Z,0
2016-02-05T01:16:12.904Z,0
2016-02-05T01:17:12.891Z,0
2016-02-05T01:18:12.898Z,0
2016-02-05T01:19:12.885Z,0
2016-02-05T01:20:12.903Z,0
2016-02-05T01:21:12.858Z,0
2016-02-05T01:22:12.862Z,0
2016-02-05T01:23:12.848Z,0
2016-02-05T01:24:12.867Z,0
2016-02-05T01:25:12.838Z,0
2016-02-05T01:26:12.842Z,0
2016-02-05T01:27:12.844Z,0
2016-02-05T01:28:12.852Z,0
2016-02-05T01:29:12.807Z,0
2016-02-05T01:30:12.825Z,0
2016-02-05T01:31:12.797Z,0
2016-02-05T01:32:12.799Z,0
2016-02-05T01:33:12.818Z,0
2016-02-05T01:34:12.805Z,0
2016-02-05T01:35:12.812Z,0
2016-02-05T01:36:12.814Z,0
2016-02-05T01:37:12.770Z,0
2016-02-05T01:38:12.758Z,0
2016-02-05T01:39:12.761Z,0
2016-02-05T01:40:12.778Z,0
2016-02-05T01:41:12.750Z,0
2016-02-05T01:42:12.752Z,0
2016-02-05T01:43:12.739Z,0
2016-02-05T01:44:12.742Z,0
2016-02-05T01:45:12.744Z,0
2016-02-05T01:46:12.716Z,0
2016-02-05T01:47:12.718Z,0
2016-02-05T01:48:12.723Z,0
2016-02-05T01:49:12.741Z,0
2016-02-05T01:50:12.697Z,0
2016-02-05T01:51:12.699Z,0
2016-02-05T01:52:12.702Z,0
2016-02-05T01:53:12.521Z,0
2016-02-05T01:54:12.680Z,0
2016-02-05T01:55:12.701Z,0
2016-02-05T01:56:12.704Z,0
2016-02-05T01:57:12.676Z,0
2016-02-05T01:58:12.687Z,0
2016-02-05T01:59:12.642Z,0
2016-02-05T02:00:12.645Z,0
2016-02-05T02:01:12.663Z,0
2016-02-05T02:02:12.650Z,0
2016-02-05T02:03:12.622Z,0
2016-02-05T02:04:12.661Z,0
2016-02-05T02:05:12.617Z,0
2016-02-05T02:06:12.619Z,0
2016-02-05T02:07:12.636Z,0
2016-02-05T02:08:12.594Z,0
2016-02-05T02:09:12.581Z,0
2016-02-05T02:10:12.615Z,0
2016-02-05T02:11:12.571Z,0
2016-02-05T02:12:12.573Z,0
2016-02-05T02:13:12.593Z,0
2016-02-05T02:14:12.564Z,0
2016-02-05T02:15:12.567Z,0
2016-02-05T02:16:12.570Z,0
2016-02-05T02:17:12.540Z,0
2016-02-05T02:18:12.543Z,0
2016-02-05T02:19:12.562Z,0
2016-02-05T02:20:12.519Z,0
2016-02-05T02:21:12.522Z,0
2016-02-05T02:22:12.556Z,0
2016-02-05T02:23:12.528Z,0
2016-02-05T02:24:12.515Z,0
2016-02-05T02:25:12.533Z,0
2016-02-05T02:26:12.489Z,0
2016-02-05T02:27:12.492Z,0
2016-02-05T02:28:12.482Z,0
2016-02-05T02:29:12.468Z,0
2016-02-05T02:30:12.508Z,0
2016-02-05T02:31:12.463Z,0
2016-02-05T02:32:12.451Z,0
2016-02-05T02:33:12.468Z,0
2016-02-05T02:34:12.457Z,0
2016-02-05T02:35:12.443Z,0
2016-02-05T02:36:12.477Z,0
2016-02-05T02:37:12.432Z,0
2016-02-05T02:38:12.420Z,0
2016-02-05T02:39:12.423Z,0
2016-02-05T02:40:12.442Z,0
2016-02-05T02:41:12.413Z,0
2016-02-05T02:42:12.431Z,0
2016-02-05T02:43:12.419Z,0
2016-02-05T02:44:12.396Z,0
2016-02-05T02:45:12.241Z,0
2016-02-05T02:46:12.384Z,0
2016-02-05T02:47:12.434Z,0
2016-02-05T02:48:12.390Z,0
2016-02-05T02:49:12.376Z,0
2016-02-05T02:50:12.364Z,0
2016-02-05T02:51:12.382Z,0
2016-02-05T02:52:12.354Z,0
2016-02-05T02:53:12.343Z,0
2016-02-05T02:54:12.346Z,0
2016-02-05T02:55:12.364Z,0
2016-02-05T02:56:12.367Z,0
2016-02-05T02:57:12.339Z,0
2016-02-05T02:58:12.358Z,0
2016-02-05T02:59:12.314Z,0
2016-02-05T03:00:26.430Z,0
2016-02-05T03:01:12.355Z,0
2016-02-05T03:02:12.294Z,0
2016-02-05T03:03:12.297Z,0
2016-02-05T03:04:12.316Z,0
2016-02-05T03:05:12.288Z,0
2016-02-05T03:06:12.291Z,0
2016-02-05T03:07:12.262Z,0
2016-02-05T03:08:12.264Z,0
2016-02-05T03:09:12.268Z,0
2016-02-05T03:10:12.286Z,0
2016-02-05T03:11:12.242Z,0
2016-02-05T03:12:12.275Z,0
2016-02-05T03:13:12.232Z,0
2016-02-05T03:14:12.239Z,0
2016-02-05T03:15:12.227Z,0
2016-02-05T03:16:12.216Z,0
2016-02-05T03:17:12.235Z,0
2016-02-05T03:18:12.238Z,0
2016-02-05T03:19:12.208Z,0
2016-02-05T03:20:12.199Z,0
2016-02-05T03:21:12.218Z,0
2016-02-05T03:22:12.190Z,0
2016-02-05T03:23:12.192Z,0
2016-02-05T03:24:12.179Z,0
2016-02-05T03:25:12.197Z,0
2016-02-05T03:26:12.185Z,0
2016-02-05T03:27:12.204Z,0
2016-02-05T03:28:12.191Z,0
2016-02-05T03:29:12.146Z,0
2016-02-05T03:30:12.165Z,0
2016-02-05T03:31:12.149Z,0
2016-02-05T03:32:12.136Z,0
2016-02-05T03:33:12.122Z,0
2016-02-05T03:34:12.124Z,0
2016-02-05T03:35:12.112Z,0
2016-02-05T03:36:12.130Z,0
2016-02-05T03:37:11.961Z,0
2016-02-05T03:38:12.106Z,0
2016-02-05T03:39:12.109Z,0
2016-02-05T03:40:12.111Z,0
2016-02-05T03:41:12.084Z,0
2016-02-05T03:42:12.086Z,0
2016-02-05T03:43:12.089Z,0
2016-02-05T03:44:12.076Z,0
2016-02-05T03:45:12.078Z,0
2016-02-05T03:46:12.067Z,0
2016-02-05T03:47:12.038Z,0
2016-02-05T03:48:12.042Z,0
2016-02-05T03:49:12.075Z,0
2016-02-05T03:50:12.032Z,0
2016-02-05T03:51:12.034Z,0
2016-02-05T03:52:12.038Z,0
2016-02-05T03:53:12.055Z,0
2016-02-05T03:54:12.026Z,0
2016-02-05T03:55:11.999Z,0
2016-02-05T03:56:12.047Z,0
2016-02-05T03:57:11.988Z,0
2016-02-05T03:58:11.978Z,0
2016-02-05T03:59:11.980Z,0
2016-02-05T04:00:12.020Z,0
2016-02-05T04:01:11.945Z,0
2016-02-05T04:02:11.948Z,0
2016-02-05T04:03:12.154Z,0
2016-02-05T04:04:11.985Z,0
2016-02-05T04:05:11.957Z,0
2016-02-05T04:06:11.947Z,0
2016-02-05T04:07:11.918Z,0
2016-02-05T04:08:11.920Z,0
2016-02-05T04:09:11.908Z,0
2016-02-05T04:10:11.926Z,0
2016-02-05T04:11:11.897Z,0
2016-02-05T04:12:11.869Z,0
2016-02-05T04:13:11.919Z,0
2016-02-05T04:14:11.890Z,0
2016-02-05T04:15:11.877Z,0
2016-02-05T04:16:11.896Z,0
2016-02-05T04:17:11.851Z,0
2016-02-05T04:18:11.870Z,0
2016-02-05T04:19:11.857Z,0
2016-02-05T04:20:11.829Z,0
2016-02-05T04:21:11.831Z,0
2016-02-05T04:22:11.850Z,0
2016-02-05T04:23:11.811Z,0
2016-02-05T04:24:11.815Z,0
2016-02-05T04:25:11.817Z,0
2016-02-05T04:26:11.819Z,0
2016-02-05T04:27:11.791Z,0
2016-02-05T04:28:11.793Z,0
2016-02-05T04:29:11.781Z,0
2016-02-05T04:30:11.766Z,0
2016-02-05T04:31:11.784Z,0
2016-02-05T04:32:11.787Z,0
2016-02-05T04:33:11.752Z,0
2016-02-05T04:34:11.763Z,0
2016-02-05T04:35:11.757Z,0
2016-02-05T04:36:11.736Z,0
2016-02-05T04:37:11.715Z,0
2016-02-05T04:38:12.184Z,0
2016-02-05T04:39:12.167Z,0
2016-02-05T04:40:12.011Z,0
2016-02-05T04:41:11.887Z,0
2016-02-05T04:42:12.278Z,0
2016-02-05T04:43:12.155Z,0
2016-02-05T04:44:12.109Z,0
2016-02-05T04:45:12.016Z,0
2016-02-05T04:46:12.096Z,0
2016-02-05T04:47:12.019Z,0
2016-02-05T04:48:12.146Z,0
2016-02-05T04:49:11.290Z,0
2016-02-05T04:50:12.011Z,0
2016-02-05T04:51:12.030Z,0
2016-02-05T04:52:12.032Z,0
2016-02-05T04:53:12.082Z,0
2016-02-05T04:54:12.132Z,0
2016-02-05T04:55:12.118Z,0
2016-02-05T04:56:12.125Z,0
2016-02-05T04:57:11.613Z,0
2016-02-05T04:58:11.927Z,0
2016-02-05T04:59:12.040Z,0
2016-02-05T05:00:12.155Z,0
2016-02-05T05:01:11.954Z,0
2016-02-05T05:02:12.019Z,0
2016-02-05T05:03:12.068Z,0
2016-02-05T05:04:12.075Z,0
2016-02-05T05:05:12.327Z,0
2016-02-05T05:06:11.860Z,0
2016-02-05T05:07:11.879Z,0
2016-02-05T05:08:11.976Z,0
2016-02-05T05:09:11.697Z,0
2016-02-05T05:10:11.887Z,0
2016-02-05T05:11:11.858Z,0
2016-02-05T05:12:11.846Z,0
2016-02-05T05:13:11.958Z,0
2016-02-05T05:14:11.898Z,0
2016-02-05T05:15:12.057Z,0
2016-02-05T05:16:11.826Z,0
2016-02-05T05:17:11.891Z,0
2016-02-05T05:18:11.847Z,0
2016-02-05T05:19:11.209Z,0
2016-02-05T05:20:11.743Z,0
2016-02-05T05:21:11.824Z,0
2016-02-05T05:22:11.936Z,0
2016-02-05T05:23:11.721Z,0
2016-02-05T05:24:11.770Z,0
2016-02-05T05:25:11.727Z,0
2016-02-05T05:26:11.995Z,0
2016-02-05T05:27:11.794Z,0
2016-02-05T05:28:11.797Z,0
2016-02-05T05:29:11.695Z,0
2016-02-05T05:30:11.871Z,0
2016-02-05T05:31:11.812Z,0
2016-02-05T05:32:11.815Z,0
2016-02-05T05:33:11.739Z,0
2016-02-05T05:34:11.851Z,0
2016-02-05T05:35:10.479Z,0
2016-02-05T05:36:11.752Z,0
2016-02-05T05:37:12.004Z,0
2016-02-05T05:38:11.788Z,0
2016-02-05T05:39:11.807Z,0
2016-02-05T05:40:11.872Z,0
2016-02-05T05:41:11.968Z,0
2016-02-05T05:42:11.642Z,0
2016-02-05T05:43:11.771Z,0
2016-02-05T05:44:11.664Z,0
2016-02-05T05:45:11.636Z,0
2016-02-05T05:46:11.654Z,0
2016-02-05T05:47:11.641Z,0
2016-02-05T05:48:11.785Z,0
2016-02-05T05:49:11.741Z,0
2016-02-05T05:50:11.759Z,0
2016-02-05T05:51:11.622Z,0
2016-02-05T05:52:11.514Z,0
2016-02-05T05:53:11.675Z,0
2016-02-05T05:54:11.911Z,0
2016-02-05T05:55:11.789Z,0
2016-02-05T05:56:11.635Z,0
2016-02-05T05:57:11.746Z,0
2016-02-05T05:58:11.547Z,0
2016-02-05T05:59:11.659Z,0
2016-02-05T06:00:11.569Z,0
2016-02-05T06:01:11.586Z,0
2016-02-05T06:02:11.918Z,0
2016-02-05T06:03:11.577Z,0
2016-02-05T06:04:11.564Z,0
2016-02-05T06:05:10.723Z,0
2016-02-05T06:06:11.678Z,0
2016-02-05T06:07:11.400Z,0
2016-02-05T06:08:12.403Z,0
2016-02-05T06:09:11.610Z,0
2016-02-05T06:10:11.472Z,0
2016-02-05T06:11:11.568Z,0
2016-02-05T06:12:11.430Z,0
2016-02-05T06:13:11.651Z,0
2016-02-05T06:14:11.592Z,0
2016-02-05T06:15:11.423Z,0
2016-02-05T06:16:11.581Z,0
2016-02-05T06:17:11.678Z,0
2016-02-05T06:18:11.495Z,0
2016-02-05T06:19:11.420Z,0
2016-02-05T06:20:11.501Z,0
2016-02-05T06:21:11.504Z,0
2016-02-05T06:22:11.478Z,0
2016-02-05T06:23:11.497Z,0
2016-02-05T06:24:11.484Z,0
2016-02-05T06:25:11.517Z,0
2016-02-05T06:26:11.520Z,0
2016-02-05T06:27:11.632Z,0
2016-02-05T06:28:11.464Z,0
2016-02-05T06:29:11.438Z,0
2016-02-05T06:30:11.621Z,0
2016-02-05T06:31:11.545Z,0
2016-02-05T06:32:11.470Z,5
2016-02-05T06:33:11.082Z,5
2016-02-05T06:34:11.726Z,5
2016-02-05T06:35:11.869Z,5
2016-02-05T06:36:11.512Z,5
2016-02-05T06:37:11.031Z,5
2016-02-05T06:38:11.533Z,5
2016-02-05T06:39:11.083Z,5
2016-02-05T06:40:11.601Z,10
2016-02-05T06:41:11.292Z,10
2016-02-05T06:42:11.623Z,10
2016-02-05T06:43:11.345Z,10
2016-02-05T06:44:11.487Z,10
2016-02-05T06:45:11.319Z,15
2016-02-05T06:46:11.384Z,15
2016-02-05T06:47:11.309Z,15
2016-02-05T06:48:11.342Z,20
2016-02-05T06:49:11.407Z,20
2016-02-05T06:50:11.394Z,20
2016-02-05T06:51:11.304Z,20
2016-02-05T06:52:11.322Z,20
2016-02-05T06:53:11.199Z,25
2016-02-05T06:54:11.297Z,25
2016-02-05T06:55:11.236Z,25
2016-02-05T06:56:11.240Z,30
2016-02-05T06:57:11.367Z,30
2016-02-05T06:58:11.339Z,30
2016-02-05T06:59:25.307Z,30
2016-02-05T07:00:11.342Z,35
2016-02-05T07:01:11.235Z,35
2016-02-05T07:02:11.144Z,35
2016-02-05T07:03:11.036Z,35
2016-02-05T07:04:26.056Z,40
2016-02-05T07:05:12.106Z,40
2016-02-05T07:06:11.140Z,40
2016-02-05T07:07:11.408Z,45
2016-02-05T07:08:11.333Z,45
2016-02-05T07:09:11.118Z,45
2016-02-05T07:10:11.370Z,50
2016-02-05T07:11:11.107Z,50
2016-02-05T07:12:10.297Z,50
2016-02-05T07:13:11.238Z,60
2016-02-05T07:14:11.101Z,60
2016-02-05T07:15:11.041Z,60
2016-02-05T07:16:10.559Z,55
2016-02-05T07:17:11.218Z,50
2016-02-05T07:18:11.284Z,50
2016-02-05T07:19:11.302Z,55
2016-02-05T07:20:11.070Z,55
2016-02-05T07:21:11.229Z,45
2016-02-05T07:22:11.223Z,35
2016-02-05T07:23:10.506Z,30
2016-02-05T07:24:11.072Z,20
2016-02-05T07:25:11.403Z,20
2016-02-05T07:26:11.265Z,20
2016-02-05T07:27:11.831Z,20
2016-02-05T07:28:11.271Z,15
2016-02-05T07:29:11.071Z,15
2016-02-05T07:30:11.122Z,20
2016-02-05T07:31:10.594Z,30
2016-02-05T07:32:11.081Z,40
2016-02-05T07:33:11.208Z,50
2016-02-05T07:34:11.133Z,60
2016-02-05T07:35:11.122Z,65
2016-02-05T07:36:11.188Z,65
2016-02-05T07:37:11.143Z,65
2016-02-05T07:38:11.115Z,70
2016-02-05T07:39:11.132Z,65
2016-02-05T07:40:11.043Z,55
2016-02-05T07:41:11.217Z,55
2016-02-05T07:42:11.141Z,55
2016-02-05T07:43:11.034Z,55
2016-02-05T07:44:11.114Z,60
2016-02-05T07:45:11.071Z,65
2016-02-05T07:46:11.199Z,90
2016-02-05T07:47:11.170Z,110
2016-02-05T07:48:11.047Z,120
2016-02-05T07:49:11.066Z,115
2016-02-05T07:50:11.069Z,105
2016-02-05T07:51:11.071Z,85
2016-02-05T07:52:11.042Z,80
2016-02-05T07:53:11.139Z,80
2016-02-05T07:54:10.672Z,80
2016-02-05T07:55:10.663Z,90
2016-02-05T07:56:10.774Z,90
2016-02-05T07:57:10.683Z,95
2016-02-05T07:58:10.654Z,95
2016-02-05T07:59:11.376Z,90
2016-02-05T08:00:11.020Z,95
2016-02-05T08:01:10.574Z,95
2016-02-05T08:02:11.190Z,100
2016-02-05T08:03:11.099Z,100
2016-02-05T08:04:11.024Z,110
2016-02-05T08:05:11.120Z,105
2016-02-05T08:06:11.013Z,115
2016-02-05T08:07:11.032Z,120
2016-02-05T08:08:11.098Z,125
2016-02-05T08:09:11.163Z,135
2016-02-05T08:10:10.963Z,145
2016-02-05T08:11:10.668Z,155
2016-02-05T08:12:10.999Z,165
2016-02-05T08:13:10.908Z,155
2016-02-05T08:14:11.098Z,160
2016-02-05T08:15:10.944Z,160
2016-02-05T08:16:11.010Z,160
2016-02-05T08:17:11.043Z,165
2016-02-05T08:18:10.921Z,165
2016-02-05T08:19:10.768Z,165
2016-02-05T08:20:10.820Z,155
2016-02-05T08:21:11.119Z,155
2016-02-05T08:22:10.967Z,155
2016-02-05T08:23:10.938Z,165
2016-02-05T08:24:10.971Z,165
2016-02-05T08:25:11.005Z,170
2016-02-05T08:26:10.993Z,160
2016-02-05T08:27:10.261Z,165
2016-02-05T08:28:10.828Z,170
2016-02-05T08:29:11.081Z,165
2016-02-05T08:30:10.928Z,160
2016-02-05T08:31:10.885Z,160
2016-02-05T08:32:11.091Z,170
2016-02-05T08:33:11.000Z,180
2016-02-05T08:34:10.877Z,180
2016-02-05T08:35:10.958Z,175
2016-02-05T08:36:10.930Z,180
2016-02-05T08:37:10.932Z,195
2016-02-05T08:38:11.013Z,180
2016-02-05T08:39:10.891Z,180
2016-02-05T08:40:10.941Z,180
2016-02-05T08:41:11.085Z,190
2016-02-05T08:42:10.197Z,180
2016-02-05T08:43:10.949Z,195
2016-02-05T08:44:10.905Z,200
2016-02-05T08:45:10.924Z,200
2016-02-05T08:46:10.833Z,190
2016-02-05T08:47:10.804Z,190
2016-02-05T08:48:11.496Z,200
2016-02-05T08:49:10.843Z,200
2016-02-05T08:50:10.955Z,200
2016-02-05T08:51:10.723Z,205
2016-02-05T08:52:10.773Z,210
2016-02-05T08:53:10.980Z,210
2016-02-05T08:54:10.702Z,195
2016-02-05T08:55:10.658Z,205
2016-02-05T08:56:10.723Z,205
2016-02-05T08:57:10.757Z,210
2016-02-05T08:58:10.681Z,200
2016-02-05T08:59:10.746Z,205
2016-02-05T09:00:10.735Z,210
2016-02-05T09:01:10.803Z,190
2016-02-05T09:02:10.728Z,185
2016-02-05T09:03:10.668Z,205
2016-02-05T09:04:10.717Z,225
2016-02-05T09:05:10.707Z,225
2016-02-05T09:06:10.679Z,225
2016-02-05T09:07:10.698Z,220
2016-02-05T09:08:10.778Z,225
2016-02-05T09:09:10.796Z,240
2016-02-05T09:10:10.627Z,255
2016-02-05T09:11:10.723Z,250
2016-02-05T09:12:10.850Z,245
2016-02-05T09:13:10.731Z,230
2016-02-05T09:14:10.861Z,225
2016-02-05T09:15:10.691Z,205
2016-02-05T09:16:10.649Z,185
2016-02-05T09:17:10.700Z,180
2016-02-05T09:18:10.780Z,170
2016-02-05T09:19:10.736Z,170
2016-02-05T09:20:09.762Z,170
2016-02-05T09:21:10.562Z,180
2016-02-05T09:22:10.705Z,185
2016-02-05T09:23:09.801Z,205
2016-02-05T09:24:10.695Z,225
2016-02-05T09:25:10.667Z,230
2016-02-05T09:26:10.844Z,230
2016-02-05T09:27:10.660Z,235
2016-02-05T09:28:10.569Z,250
2016-02-05T09:29:10.618Z,260
2016-02-05T09:30:10.621Z,255
2016-02-05T09:31:11.139Z,240
2016-02-05T09:32:10.642Z,245
2016-02-05T09:33:10.582Z,240
2016-02-05T09:34:10.773Z,255
2016-02-05T09:35:11.696Z,275
2016-02-05T09:36:11.138Z,280
2016-02-05T09:37:10.718Z,280
2016-02-05T09:38:10.612Z,275
2016-02-05T09:39:10.536Z,270
2016-02-05T09:40:10.585Z,270
2016-02-05T09:41:10.698Z,285
2016-02-05T09:42:10.637Z,280
2016-02-05T09:43:10.547Z,250
2016-02-05T09:44:11.486Z,240
2016-02-05T09:45:10.630Z,235
2016-02-05T09:46:11.274Z,260
2016-02-05T09:47:10.809Z,285
2016-02-05T09:48:10.642Z,315
2016-02-05T09:49:10.614Z,345
2016-02-05T09:50:10.616Z,350
2016-02-05T09:51:10.650Z,345
2016-02-05T09:52:10.590Z,350
2016-02-05T09:53:10.563Z,335
2016-02-05T09:54:10.738Z,300
2016-02-05T09:55:10.616Z,285
2016-02-05T09:56:10.711Z,285
2016-02-05T09:57:09.793Z,275
2016-02-05T09:58:10.656Z,285
2016-02-05T09:59:10.690Z,280
2016-02-05T10:00:10.598Z,270
2016-02-05T10:01:10.633Z,265
2016-02-05T10:02:09.948Z,250
2016-02-05T10:03:10.779Z,235
2016-02-05T10:04:10.564Z,255
2016-02-05T10:05:10.598Z,255
2016-02-05T10:06:10.960Z,245
2016-02-05T10:07:10.588Z,240
2016-02-05T10:08:10.591Z,255
2016-02-05T10:09:10.593Z,275
2016-02-05T10:10:10.580Z,265
2016-02-05T10:11:10.583Z,250
2016-02-05T10:12:10.539Z,230
2016-02-05T10:13:10.526Z,200
2016-02-05T10:14:10.607Z,185
2016-02-05T10:15:10.500Z,210
2016-02-05T10:16:10.583Z,210
2016-02-05T10:17:10.554Z,205
2016-02-05T10:18:10.760Z,195
2016-02-05T10:19:10.642Z,175
2016-02-05T10:20:10.753Z,145
2016-02-05T10:21:10.897Z,125
2016-02-05T10:22:10.525Z,135
2016-02-05T10:23:10.668Z,155
2016-02-05T10:24:10.733Z,160
2016-02-05T10:25:10.767Z,165
2016-02-05T10:26:10.785Z,195
2016-02-05T10:27:10.757Z,200
2016-02-05T10:28:10.650Z,175
2016-02-05T10:29:10.669Z,160
2016-02-05T10:30:10.889Z,150
2016-02-05T10:31:10.799Z,140
2016-02-05T10:32:10.692Z,135
2016-02-05T10:33:10.714Z,135
2016-02-05T10:34:10.731Z,130
2016-02-05T10:35:10.703Z,130
2016-02-05T10:36:10.878Z,125
2016-02-05T10:37:10.444Z,135
2016-02-05T10:38:10.696Z,155
2016-02-05T10:39:10.966Z,160
2016-02-05T10:40:10.750Z,190
2016-02-05T10:41:11.174Z,240
2016-02-05T10:42:11.052Z,265
2016-02-05T10:43:10.383Z,275
2016-02-05T10:44:10.229Z,270
2016-02-05T10:45:10.232Z,280
2016-02-05T10:46:10.235Z,290
2016-02-05T10:47:10.221Z,295
2016-02-05T10:48:10.256Z,295
2016-02-05T10:49:10.243Z,300
2016-02-05T10:50:10.261Z,315
2016-02-05T10:51:10.232Z,330
2016-02-05T10:52:10.235Z,345
2016-02-05T10:53:10.237Z,365
2016-02-05T10:54:10.225Z,390
2016-02-05T10:55:10.243Z,385
2016-02-05T10:56:10.246Z,390
2016-02-05T10:57:10.233Z,430
2016-02-05T10:58:10.251Z,400
2016-02-05T10:59:10.209Z,370
2016-02-05T11:00:10.226Z,340
2016-02-05T11:01:10.229Z,315
2016-02-05T11:02:10.201Z,330
2016-02-05T11:03:10.205Z,340
2016-02-05T11:04:10.474Z,365
2016-02-05T11:05:10.258Z,395
2016-02-05T11:06:10.229Z,395
2016-02-05T11:07:10.263Z,380
2016-02-05T11:08:10.202Z,430
2016-02-05T11:09:10.205Z,365
2016-02-05T11:10:10.193Z,320
2016-02-05T11:11:10.243Z,320
2016-02-05T11:12:10.199Z,330
2016-02-05T11:13:10.202Z,325
2016-02-05T11:14:10.220Z,300
2016-02-05T11:15:10.207Z,265
2016-02-05T11:16:10.211Z,220
2016-02-05T11:17:10.229Z,200
2016-02-05T11:18:10.248Z,180
2016-02-05T11:19:10.456Z,185
2016-02-05T11:20:10.661Z,190
2016-02-05T11:21:10.789Z,205
2016-02-05T11:22:10.666Z,210
2016-02-05T11:23:10.872Z,225
2016-02-05T11:24:13.939Z,240
2016-02-05T11:25:10.770Z,255
2016-02-05T11:26:10.662Z,215
2016-02-05T11:27:09.915Z,210
2016-02-05T11:28:10.528Z,190
2016-02-05T11:29:10.827Z,185
2016-02-05T11:30:10.502Z,200
2016-02-05T11:31:10.645Z,225
2016-02-05T11:32:09.931Z,225
2016-02-05T11:33:10.715Z,245
2016-02-05T11:34:10.718Z,265
2016-02-05T11:35:10.298Z,260
2016-02-05T11:38:13.467Z,285
2016-02-05T11:39:00.623Z,260
2016-02-05T11:40:00.596Z,255
2016-02-05T11:41:00.645Z,235
2016-02-05T11:42:00.570Z,225
2016-02-05T11:43:00.603Z,210
2016-02-05T11:44:01.543Z,210
2016-02-05T11:45:00.609Z,225
2016-02-05T11:46:00.612Z,250
2016-02-05T11:47:01.161Z,275
2016-02-05T11:48:00.976Z,265
2016-02-05T11:49:01.088Z,270
2016-02-05T11:50:01.153Z,275
2016-02-05T11:51:01.250Z,280
2016-02-05T11:52:01.128Z,275
2016-02-05T11:53:02.255Z,280
2016-02-05T11:54:03.211Z,280
2016-02-05T11:55:02.713Z,270
2016-02-05T11:56:01.185Z,255
2016-02-05T11:57:00.907Z,215
2016-02-05T11:58:01.300Z,175
2016-02-05T11:59:01.069Z,160
2016-02-05T12:00:01.119Z,160
2016-02-05T12:01:00.511Z,165
2016-02-05T12:02:02.015Z,175
2016-02-05T12:03:00.924Z,175
2016-02-05T12:04:00.912Z,170
2016-02-05T12:05:01.651Z,180
2016-02-05T12:06:01.388Z,195
2016-02-05T12:07:01.625Z,205
2016-02-05T12:08:01.019Z,210
2016-02-05T12:09:00.725Z,220
2016-02-05T12:10:01.121Z,225
2016-02-05T12:11:00.937Z,215
2016-02-05T12:12:01.095Z,210
2016-02-05T12:13:01.989Z,210
2016-02-05T12:14:01.007Z,205
2016-02-05T12:15:01.009Z,200
2016-02-05T12:16:01.106Z,195
2016-02-05T12:17:01.014Z,200
2016-02-05T12:18:01.082Z,205
2016-02-05T12:19:01.100Z,215
2016-02-05T12:20:01.072Z,220
2016-02-05T12:21:01.043Z,240
2016-02-05T12:22:00.905Z,265
2016-02-05T12:23:01.051Z,295
2016-02-05T12:24:00.209Z,315
2016-02-05T12:25:00.494Z,320
2016-02-05T12:26:01.090Z,310
2016-02-05T12:27:00.297Z,300
2016-02-05T12:28:01.096Z,295
2016-02-05T12:29:00.615Z,285
2016-02-05T12:30:00.853Z,260
2016-02-05T12:31:00.904Z,235
2016-02-05T12:32:00.843Z,210
2016-02-05T12:33:00.878Z,205
2016-02-05T12:34:00.868Z,225
2016-02-05T12:35:01.044Z,280
2016-02-05T12:36:00.905Z,305
2016-02-05T12:37:00.892Z,290
2016-02-05T12:38:00.867Z,255
2016-02-05T12:39:00.589Z,265
2016-02-05T12:40:00.575Z,255
2016-02-05T12:41:00.578Z,220
2016-02-05T12:42:00.597Z,180
2016-02-05T12:43:00.585Z,170
2016-02-05T12:44:00.978Z,155
2016-02-05T12:45:01.106Z,145
2016-02-05T12:46:00.748Z,140
2016-02-05T12:47:00.815Z,140
2016-02-05T12:48:00.614Z,140
2016-02-05T12:49:00.664Z,145
2016-02-05T12:50:00.697Z,145
2016-02-05T12:51:00.627Z,150
2016-02-05T12:52:02.160Z,155
2016-02-05T12:53:00.679Z,160
2016-02-05T12:54:00.852Z,160
2016-02-05T12:55:00.824Z,170
2016-02-05T12:56:00.596Z,180
2016-02-05T12:57:00.552Z,170
2016-02-05T12:58:00.571Z,170
2016-02-05T12:59:02.574Z,165
2016-02-05T13:00:03.982Z,160
2016-02-05T13:01:03.314Z,160
2016-02-05T13:02:00.800Z,155
2016-02-05T13:03:00.648Z,145
2016-02-05T13:04:00.604Z,140
2016-02-05T13:05:00.800Z,130
2016-02-05T13:06:00.557Z,130
2016-02-05T13:07:03.403Z,140
2016-02-05T13:08:01.781Z,145
2016-02-05T13:09:00.425Z,145
2016-02-05T13:10:00.802Z,150
2016-02-05T13:11:00.652Z,150
2016-02-05T13:12:00.577Z,155
2016-02-05T13:13:00.548Z,155
2016-02-05T13:14:00.582Z,155
2016-02-05T13:15:00.601Z,150
2016-02-05T13:16:00.574Z,140
2016-02-05T13:17:03.544Z,145
2016-02-05T13:18:01.094Z,150
2016-02-05T13:19:00.972Z,155
2016-02-05T13:20:01.225Z,160
2016-02-05T13:21:00.915Z,155
2016-02-05T13:22:01.090Z,160
2016-02-05T13:23:01.014Z,165
2016-02-05T13:24:00.940Z,180
2016-02-05T13:25:00.053Z,205
2016-02-05T13:26:01.477Z,215
2016-02-05T13:27:01.323Z,220
2016-02-05T13:28:00.998Z,230
2016-02-05T13:29:01.033Z,225
2016-02-05T13:30:01.896Z,210
2016-02-05T13:31:02.135Z,210
2016-02-05T13:32:00.974Z,210
2016-02-05T13:33:00.981Z,205
2016-02-05T13:34:06.074Z,205
2016-02-05T13:35:01.082Z,205
2016-02-05T13:36:10.128Z,190
2016-02-05T13:37:02.492Z,185
2016-02-05T13:38:01.104Z,180
2016-02-05T13:39:00.682Z,180
2016-02-05T13:40:01.132Z,185
2016-02-05T13:41:00.970Z,195
2016-02-05T13:42:00.935Z,205
2016-02-05T13:43:00.868Z,210
2016-02-05T13:44:00.785Z,215
2016-02-05T13:45:00.833Z,215
2016-02-05T13:46:00.787Z,215
2016-02-05T13:47:00.523Z,215
2016-02-05T13:48:00.898Z,220
2016-02-05T13:49:00.806Z,230
2016-02-05T13:50:00.855Z,240
2016-02-05T13:51:01.064Z,255
2016-02-05T13:52:01.127Z,235
2016-02-05T13:53:00.708Z,205
2016-02-05T13:54:00.507Z,200
2016-02-05T13:55:00.634Z,200
2016-02-05T13:56:00.954Z,195
2016-02-05T13:57:01.019Z,185
2016-02-05T13:58:00.834Z,185
2016-02-05T13:59:00.759Z,190
2016-02-05T14:00:00.979Z,195
2016-02-05T14:01:00.951Z,200
2016-02-05T14:02:00.610Z,200
2016-02-05T14:03:00.692Z,200
2016-02-05T14:04:01.057Z,200
2016-02-05T14:05:00.779Z,200
2016-02-05T14:06:00.797Z,200
2016-02-05T14:07:00.955Z,205
2016-02-05T14:08:00.708Z,205
2016-02-05T14:09:00.711Z,205
2016-02-05T14:10:00.714Z,205
2016-02-05T14:11:00.671Z,205
2016-02-05T14:12:00.751Z,200
2016-02-05T14:13:00.676Z,195
2016-02-05T14:14:00.725Z,190
2016-02-05T14:15:01.025Z,185
2016-02-05T14:16:00.730Z,175
2016-02-05T14:17:01.157Z,165
2016-02-05T14:18:00.659Z,160